Terminal Aerodrome Forecast
Issued by NWS Twin Cities, MN

Home | Current Version | Previous Version | Text Only | Print | Product List | Glossary Off
Versions: 1 2 3 4 5 6 7 8 9 10 11 12 13 14 15 16 17 18 19 20 21 22 23

000
FTUS43 KMPX 230700 AAA
TAFMSP
TAF AMD
KMSP 230758Z 2308/2412 04012KT 6SM -DZ BR OVC012
     FM231100 03014KT 2SM -SN BR OVC007
     FM231300 02013KT 1SM -SN BR VV003
     FM232000 35012KT 3SM -SN OVC006=

USA.gov is the U.S. government's official web portal to all federal, state and local government web resources and services.